sensor_id;sensor_type;location;lat;lon;timestamp;P1;durP1;ratioP1;P2;durP2;ratioP2
78402;SDS011;67687;43.508;1.504;2023-09-18T00:01:47;5.82;;;2.70;;
78402;SDS011;67687;43.508;1.504;2023-09-18T00:04:13;6.32;;;2.50;;
78402;SDS011;67687;43.508;1.504;2023-09-18T00:06:40;6.07;;;2.55;;
78402;SDS011;67687;43.508;1.504;2023-09-18T00:09:07;6.00;;;2.70;;
78402;SDS011;67687;43.508;1.504;2023-09-18T00:11:36;8.05;;;2.85;;
78402;SDS011;67687;43.508;1.504;2023-09-18T00:14:04;6.95;;;2.85;;
78402;SDS011;67687;43.508;1.504;2023-09-18T00:16:31;8.27;;;3.08;;
78402;SDS011;67687;43.508;1.504;2023-09-18T00:18:59;7.88;;;2.97;;
78402;SDS011;67687;43.508;1.504;2023-09-18T00:21:26;6.93;;;2.70;;
78402;SDS011;67687;43.508;1.504;2023-09-18T00:23:55;8.15;;;3.00;;
78402;SDS011;67687;43.508;1.504;2023-09-18T00:26:23;6.78;;;2.53;;
78402;SDS011;67687;43.508;1.504;2023-09-18T00:28:50;7.68;;;2.78;;
78402;SDS011;67687;43.508;1.504;2023-09-18T00:31:16;7.45;;;3.08;;
78402;SDS011;67687;43.508;1.504;2023-09-18T00:33:43;7.10;;;2.53;;
78402;SDS011;67687;43.508;1.504;2023-09-18T00:36:11;6.30;;;2.47;;
78402;SDS011;67687;43.508;1.504;2023-09-18T00:38:38;6.20;;;2.58;;
78402;SDS011;67687;43.508;1.504;2023-09-18T00:41:05;5.45;;;2.70;;
78402;SDS011;67687;43.508;1.504;2023-09-18T00:43:32;10.13;;;3.08;;
78402;SDS011;67687;43.508;1.504;2023-09-18T00:46:00;9.03;;;2.90;;
78402;SDS011;67687;43.508;1.504;2023-09-18T00:48:26;8.55;;;2.55;;
78402;SDS011;67687;43.508;1.504;2023-09-18T00:50:54;8.05;;;2.92;;
78402;SDS011;67687;43.508;1.504;2023-09-18T00:53:24;6.88;;;2.58;;
78402;SDS011;67687;43.508;1.504;2023-09-18T00:55:52;5.72;;;2.75;;
78402;SDS011;67687;43.508;1.504;2023-09-18T00:58:21;6.80;;;2.57;;
78402;SDS011;67687;43.508;1.504;2023-09-18T01:00:48;6.38;;;2.58;;
78402;SDS011;67687;43.508;1.504;2023-09-18T01:03:16;6.35;;;2.50;;
78402;SDS011;67687;43.508;1.504;2023-09-18T01:05:43;5.65;;;2.53;;
78402;SDS011;67687;43.508;1.504;2023-09-18T01:08:10;6.28;;;2.50;;
78402;SDS011;67687;43.508;1.504;2023-09-18T01:10:40;8.93;;;2.87;;
78402;SDS011;67687;43.508;1.504;2023-09-18T01:13:14;7.53;;;2.30;;
78402;SDS011;67687;43.508;1.504;2023-09-18T01:15:42;4.70;;;2.20;;
78402;SDS011;67687;43.508;1.504;2023-09-18T01:18:10;7.38;;;2.00;;
78402;SDS011;67687;43.508;1.504;2023-09-18T01:20:38;6.38;;;2.35;;
78402;SDS011;67687;43.508;1.504;2023-09-18T01:23:06;7.80;;;2.20;;
78402;SDS011;67687;43.508;1.504;2023-09-18T01:25:34;5.40;;;2.25;;
78402;SDS011;67687;43.508;1.504;2023-09-18T01:28:01;5.00;;;2.17;;
78402;SDS011;67687;43.508;1.504;2023-09-18T01:30:28;7.72;;;2.22;;
78402;SDS011;67687;43.508;1.504;2023-09-18T01:32:54;6.85;;;2.33;;
78402;SDS011;67687;43.508;1.504;2023-09-18T01:35:22;6.63;;;2.07;;
78402;SDS011;67687;43.508;1.504;2023-09-18T01:37:54;7.63;;;2.85;;
78402;SDS011;67687;43.508;1.504;2023-09-18T01:40:23;8.73;;;2.50;;
78402;SDS011;67687;43.508;1.504;2023-09-18T01:42:50;7.65;;;2.90;;
78402;SDS011;67687;43.508;1.504;2023-09-18T01:45:17;8.65;;;3.05;;
78402;SDS011;67687;43.508;1.504;2023-09-18T01:47:43;7.57;;;2.60;;
78402;SDS011;67687;43.508;1.504;2023-09-18T01:50:10;7.72;;;2.65;;
78402;SDS011;67687;43.508;1.504;2023-09-18T01:52:37;6.78;;;2.70;;
78402;SDS011;67687;43.508;1.504;2023-09-18T01:55:04;5.78;;;2.50;;
78402;SDS011;67687;43.508;1.504;2023-09-18T01:57:34;6.07;;;2.85;;
78402;SDS011;67687;43.508;1.504;2023-09-18T02:00:01;8.77;;;2.90;;
78402;SDS011;67687;43.508;1.504;2023-09-18T02:02:32;9.93;;;2.75;;
78402;SDS011;67687;43.508;1.504;2023-09-18T02:05:01;7.35;;;3.05;;
78402;SDS011;67687;43.508;1.504;2023-09-18T02:07:28;9.23;;;3.13;;
78402;SDS011;67687;43.508;1.504;2023-09-18T02:09:55;11.23;;;3.00;;
78402;SDS011;67687;43.508;1.504;2023-09-18T02:12:21;5.60;;;2.70;;
78402;SDS011;67687;43.508;1.504;2023-09-18T02:14:49;9.25;;;2.92;;
78402;SDS011;67687;43.508;1.504;2023-09-18T02:17:16;7.15;;;2.83;;
78402;SDS011;67687;43.508;1.504;2023-09-18T02:19:45;8.40;;;3.00;;
78402;SDS011;67687;43.508;1.504;2023-09-18T02:22:12;6.85;;;3.08;;
78402;SDS011;67687;43.508;1.504;2023-09-18T02:24:39;6.20;;;2.80;;
78402;SDS011;67687;43.508;1.504;2023-09-18T02:27:05;7.22;;;3.72;;
78402;SDS011;67687;43.508;1.504;2023-09-18T02:29:32;7.22;;;3.13;;
78402;SDS011;67687;43.508;1.504;2023-09-18T02:32:00;8.85;;;3.63;;
78402;SDS011;67687;43.508;1.504;2023-09-18T02:34:27;8.48;;;3.38;;
78402;SDS011;67687;43.508;1.504;2023-09-18T02:36:54;8.03;;;3.60;;
78402;SDS011;67687;43.508;1.504;2023-09-18T02:39:21;7.03;;;3.33;;
78402;SDS011;67687;43.508;1.504;2023-09-18T02:41:47;9.07;;;3.50;;
78402;SDS011;67687;43.508;1.504;2023-09-18T02:44:14;9.35;;;3.30;;
78402;SDS011;67687;43.508;1.504;2023-09-18T02:46:41;7.00;;;3.20;;
78402;SDS011;67687;43.508;1.504;2023-09-18T02:49:09;5.60;;;3.00;;
78402;SDS011;67687;43.508;1.504;2023-09-18T02:51:36;9.50;;;3.42;;
78402;SDS011;67687;43.508;1.504;2023-09-18T02:54:03;10.05;;;3.30;;
78402;SDS011;67687;43.508;1.504;2023-09-18T02:56:30;7.63;;;3.05;;
78402;SDS011;67687;43.508;1.504;2023-09-18T02:58:57;6.72;;;2.88;;
78402;SDS011;67687;43.508;1.504;2023-09-18T03:01:23;9.93;;;3.30;;
78402;SDS011;67687;43.508;1.504;2023-09-18T03:03:49;7.80;;;3.20;;
78402;SDS011;67687;43.508;1.504;2023-09-18T03:06:17;9.73;;;3.10;;
78402;SDS011;67687;43.508;1.504;2023-09-18T03:08:44;7.33;;;3.33;;
78402;SDS011;67687;43.508;1.504;2023-09-18T03:11:11;7.85;;;3.20;;
78402;SDS011;67687;43.508;1.504;2023-09-18T03:13:42;8.40;;;3.47;;
78402;SDS011;67687;43.508;1.504;2023-09-18T03:16:10;8.45;;;3.08;;
78402;SDS011;67687;43.508;1.504;2023-09-18T03:18:37;7.35;;;3.47;;
78402;SDS011;67687;43.508;1.504;2023-09-18T03:21:04;8.10;;;3.13;;
78402;SDS011;67687;43.508;1.504;2023-09-18T03:23:32;6.25;;;2.90;;
78402;SDS011;67687;43.508;1.504;2023-09-18T03:25:59;9.55;;;3.30;;
78402;SDS011;67687;43.508;1.504;2023-09-18T03:28:26;8.23;;;3.08;;
78402;SDS011;67687;43.508;1.504;2023-09-18T03:30:52;8.77;;;3.67;;
78402;SDS011;67687;43.508;1.504;2023-09-18T03:33:19;7.60;;;3.10;;
78402;SDS011;67687;43.508;1.504;2023-09-18T03:35:46;8.65;;;3.58;;
78402;SDS011;67687;43.508;1.504;2023-09-18T03:38:14;10.07;;;3.83;;
78402;SDS011;67687;43.508;1.504;2023-09-18T03:40:42;11.30;;;4.57;;
78402;SDS011;67687;43.508;1.504;2023-09-18T03:43:09;8.80;;;3.97;;
78402;SDS011;67687;43.508;1.504;2023-09-18T03:45:37;8.00;;;3.47;;
78402;SDS011;67687;43.508;1.504;2023-09-18T03:48:04;6.82;;;2.83;;
78402;SDS011;67687;43.508;1.504;2023-09-18T03:50:31;7.43;;;3.38;;
78402;SDS011;67687;43.508;1.504;2023-09-18T03:52:57;8.00;;;3.13;;
78402;SDS011;67687;43.508;1.504;2023-09-18T03:55:24;10.23;;;3.60;;
78402;SDS011;67687;43.508;1.504;2023-09-18T03:57:53;6.27;;;2.77;;
78402;SDS011;67687;43.508;1.504;2023-09-18T04:00:20;7.53;;;3.08;;
78402;SDS011;67687;43.508;1.504;2023-09-18T04:02:48;6.65;;;2.90;;
78402;SDS011;67687;43.508;1.504;2023-09-18T04:05:15;8.38;;;3.40;;
78402;SDS011;67687;43.508;1.504;2023-09-18T04:07:41;9.50;;;3.78;;
78402;SDS011;67687;43.508;1.504;2023-09-18T04:10:11;10.90;;;3.60;;
78402;SDS011;67687;43.508;1.504;2023-09-18T04:12:43;8.32;;;3.40;;
78402;SDS011;67687;43.508;1.504;2023-09-18T04:15:12;9.10;;;3.60;;
78402;SDS011;67687;43.508;1.504;2023-09-18T04:17:40;14.60;;;7.00;;
78402;SDS011;67687;43.508;1.504;2023-09-18T04:20:08;8.32;;;5.00;;
78402;SDS011;67687;43.508;1.504;2023-09-18T04:22:35;9.30;;;3.90;;
78402;SDS011;67687;43.508;1.504;2023-09-18T04:25:02;10.60;;;3.95;;
78402;SDS011;67687;43.508;1.504;2023-09-18T04:27:31;11.05;;;4.30;;
78402;SDS011;67687;43.508;1.504;2023-09-18T04:29:57;9.45;;;4.72;;
78402;SDS011;67687;43.508;1.504;2023-09-18T04:32:28;11.20;;;4.50;;
78402;SDS011;67687;43.508;1.504;2023-09-18T04:34:56;12.60;;;4.77;;
78402;SDS011;67687;43.508;1.504;2023-09-18T04:37:22;10.40;;;5.13;;
78402;SDS011;67687;43.508;1.504;2023-09-18T04:39:49;9.27;;;5.07;;
78402;SDS011;67687;43.508;1.504;2023-09-18T04:42:16;11.57;;;4.50;;
78402;SDS011;67687;43.508;1.504;2023-09-18T04:44:43;12.45;;;4.90;;
78402;SDS011;67687;43.508;1.504;2023-09-18T04:47:10;9.90;;;4.60;;
78402;SDS011;67687;43.508;1.504;2023-09-18T04:49:38;10.40;;;4.40;;
78402;SDS011;67687;43.508;1.504;2023-09-18T04:52:05;10.50;;;5.00;;
78402;SDS011;67687;43.508;1.504;2023-09-18T04:54:31;10.50;;;4.55;;
78402;SDS011;67687;43.508;1.504;2023-09-18T04:56:58;11.43;;;4.82;;
78402;SDS011;67687;43.508;1.504;2023-09-18T04:59:25;11.27;;;4.83;;
78402;SDS011;67687;43.508;1.504;2023-09-18T05:01:52;10.38;;;4.78;;
78402;SDS011;67687;43.508;1.504;2023-09-18T05:04:18;13.38;;;4.90;;
78402;SDS011;67687;43.508;1.504;2023-09-18T05:06:47;12.77;;;5.03;;
78402;SDS011;67687;43.508;1.504;2023-09-18T05:09:14;9.13;;;4.50;;
78402;SDS011;67687;43.508;1.504;2023-09-18T05:11:41;13.33;;;5.30;;
78402;SDS011;67687;43.508;1.504;2023-09-18T05:14:08;11.20;;;5.32;;
78402;SDS011;67687;43.508;1.504;2023-09-18T05:16:34;11.15;;;4.80;;
78402;SDS011;67687;43.508;1.504;2023-09-18T05:19:01;12.45;;;4.88;;
78402;SDS011;67687;43.508;1.504;2023-09-18T05:21:29;9.90;;;4.63;;
78402;SDS011;67687;43.508;1.504;2023-09-18T05:23:57;7.83;;;4.40;;
78402;SDS011;67687;43.508;1.504;2023-09-18T05:26:23;8.35;;;4.45;;
78402;SDS011;67687;43.508;1.504;2023-09-18T05:28:51;8.85;;;4.90;;
78402;SDS011;67687;43.508;1.504;2023-09-18T05:31:20;11.05;;;4.45;;
78402;SDS011;67687;43.508;1.504;2023-09-18T05:33:46;9.32;;;4.88;;
78402;SDS011;67687;43.508;1.504;2023-09-18T05:36:13;8.77;;;4.73;;
78402;SDS011;67687;43.508;1.504;2023-09-18T05:38:40;13.00;;;5.13;;
78402;SDS011;67687;43.508;1.504;2023-09-18T05:41:09;11.50;;;5.63;;
78402;SDS011;67687;43.508;1.504;2023-09-18T05:43:36;13.52;;;6.10;;
78402;SDS011;67687;43.508;1.504;2023-09-18T05:46:03;11.02;;;5.07;;
78402;SDS011;67687;43.508;1.504;2023-09-18T05:48:29;10.83;;;5.27;;
78402;SDS011;67687;43.508;1.504;2023-09-18T05:50:56;10.30;;;4.93;;
78402;SDS011;67687;43.508;1.504;2023-09-18T05:53:23;10.63;;;5.38;;
78402;SDS011;67687;43.508;1.504;2023-09-18T05:55:50;11.48;;;5.13;;
78402;SDS011;67687;43.508;1.504;2023-09-18T05:58:18;9.65;;;4.93;;
78402;SDS011;67687;43.508;1.504;2023-09-18T06:00:49;13.63;;;4.90;;
78402;SDS011;67687;43.508;1.504;2023-09-18T06:03:16;9.73;;;5.50;;
78402;SDS011;67687;43.508;1.504;2023-09-18T06:05:44;13.18;;;6.40;;
78402;SDS011;67687;43.508;1.504;2023-09-18T06:08:11;15.30;;;5.43;;
78402;SDS011;67687;43.508;1.504;2023-09-18T06:10:38;11.23;;;6.00;;
78402;SDS011;67687;43.508;1.504;2023-09-18T06:13:05;11.07;;;5.47;;
78402;SDS011;67687;43.508;1.504;2023-09-18T06:15:33;13.07;;;5.82;;
78402;SDS011;67687;43.508;1.504;2023-09-18T06:18:00;14.63;;;5.65;;
78402;SDS011;67687;43.508;1.504;2023-09-18T06:20:27;13.10;;;5.57;;
78402;SDS011;67687;43.508;1.504;2023-09-18T06:22:53;12.25;;;5.25;;
78402;SDS011;67687;43.508;1.504;2023-09-18T06:25:20;11.63;;;5.70;;
78402;SDS011;67687;43.508;1.504;2023-09-18T06:27:47;13.20;;;6.05;;
78402;SDS011;67687;43.508;1.504;2023-09-18T06:30:13;14.27;;;6.88;;
78402;SDS011;67687;43.508;1.504;2023-09-18T06:32:42;20.50;;;6.80;;
78402;SDS011;67687;43.508;1.504;2023-09-18T06:35:09;13.68;;;6.65;;
78402;SDS011;67687;43.508;1.504;2023-09-18T06:37:36;14.73;;;6.70;;
78402;SDS011;67687;43.508;1.504;2023-09-18T06:40:03;15.20;;;6.22;;
78402;SDS011;67687;43.508;1.504;2023-09-18T06:42:31;15.32;;;7.13;;
78402;SDS011;67687;43.508;1.504;2023-09-18T06:44:57;14.95;;;6.55;;
78402;SDS011;67687;43.508;1.504;2023-09-18T06:47:26;15.50;;;6.88;;
78402;SDS011;67687;43.508;1.504;2023-09-18T06:49:54;19.03;;;7.33;;
78402;SDS011;67687;43.508;1.504;2023-09-18T06:52:21;15.00;;;6.80;;
78402;SDS011;67687;43.508;1.504;2023-09-18T06:54:48;16.52;;;5.97;;
78402;SDS011;67687;43.508;1.504;2023-09-18T06:57:15;13.15;;;5.50;;
78402;SDS011;67687;43.508;1.504;2023-09-18T06:59:42;12.82;;;5.15;;
78402;SDS011;67687;43.508;1.504;2023-09-18T07:02:09;13.60;;;5.20;;
78402;SDS011;67687;43.508;1.504;2023-09-18T07:04:36;12.27;;;5.53;;
78402;SDS011;67687;43.508;1.504;2023-09-18T07:07:11;12.50;;;5.82;;
78402;SDS011;67687;43.508;1.504;2023-09-18T07:09:38;11.93;;;5.05;;
78402;SDS011;67687;43.508;1.504;2023-09-18T07:12:06;13.93;;;5.28;;
78402;SDS011;67687;43.508;1.504;2023-09-18T07:14:34;8.53;;;4.60;;
78402;SDS011;67687;43.508;1.504;2023-09-18T07:17:01;8.55;;;3.63;;
78402;SDS011;67687;43.508;1.504;2023-09-18T07:19:28;7.18;;;3.35;;
78402;SDS011;67687;43.508;1.504;2023-09-18T07:21:55;7.20;;;3.75;;
78402;SDS011;67687;43.508;1.504;2023-09-18T07:24:24;7.60;;;3.85;;
78402;SDS011;67687;43.508;1.504;2023-09-18T07:26:51;10.73;;;4.03;;
78402;SDS011;67687;43.508;1.504;2023-09-18T07:29:17;9.80;;;4.10;;
78402;SDS011;67687;43.508;1.504;2023-09-18T07:31:45;8.45;;;4.38;;
78402;SDS011;67687;43.508;1.504;2023-09-18T07:34:13;10.23;;;4.68;;
78402;SDS011;67687;43.508;1.504;2023-09-18T07:36:41;11.18;;;4.43;;
78402;SDS011;67687;43.508;1.504;2023-09-18T07:39:09;9.97;;;4.83;;
78402;SDS011;67687;43.508;1.504;2023-09-18T07:41:38;11.85;;;4.88;;
78402;SDS011;67687;43.508;1.504;2023-09-18T07:44:05;9.27;;;5.53;;
78402;SDS011;67687;43.508;1.504;2023-09-18T07:46:32;12.50;;;5.78;;
78402;SDS011;67687;43.508;1.504;2023-09-18T07:48:59;12.73;;;6.10;;
78402;SDS011;67687;43.508;1.504;2023-09-18T07:51:25;19.23;;;6.90;;
78402;SDS011;67687;43.508;1.504;2023-09-18T07:53:52;16.77;;;7.68;;
78402;SDS011;67687;43.508;1.504;2023-09-18T07:56:19;17.23;;;7.53;;
78402;SDS011;67687;43.508;1.504;2023-09-18T07:58:48;16.10;;;7.55;;
78402;SDS011;67687;43.508;1.504;2023-09-18T08:01:14;18.48;;;7.97;;
78402;SDS011;67687;43.508;1.504;2023-09-18T08:03:42;22.50;;;12.43;;
78402;SDS011;67687;43.508;1.504;2023-09-18T08:06:09;30.58;;;16.65;;
78402;SDS011;67687;43.508;1.504;2023-09-18T08:08:36;41.65;;;25.33;;
78402;SDS011;67687;43.508;1.504;2023-09-18T08:11:06;25.25;;;13.30;;
78402;SDS011;67687;43.508;1.504;2023-09-18T08:13:34;21.30;;;12.27;;
78402;SDS011;67687;43.508;1.504;2023-09-18T08:16:02;20.23;;;9.43;;
78402;SDS011;67687;43.508;1.504;2023-09-18T08:18:31;14.32;;;7.03;;
78402;SDS011;67687;43.508;1.504;2023-09-18T08:20:58;12.48;;;5.82;;
78402;SDS011;67687;43.508;1.504;2023-09-18T08:23:25;11.15;;;5.43;;
78402;SDS011;67687;43.508;1.504;2023-09-18T08:25:52;14.80;;;5.35;;
78402;SDS011;67687;43.508;1.504;2023-09-18T08:28:21;12.40;;;5.37;;
78402;SDS011;67687;43.508;1.504;2023-09-18T08:30:48;10.98;;;4.28;;
78402;SDS011;67687;43.508;1.504;2023-09-18T08:33:16;10.20;;;4.70;;
78402;SDS011;67687;43.508;1.504;2023-09-18T08:35:43;12.02;;;4.32;;
78402;SDS011;67687;43.508;1.504;2023-09-18T08:38:11;8.27;;;4.20;;
78402;SDS011;67687;43.508;1.504;2023-09-18T08:40:39;10.33;;;4.17;;
78402;SDS011;67687;43.508;1.504;2023-09-18T08:43:06;10.55;;;4.00;;
78402;SDS011;67687;43.508;1.504;2023-09-18T08:45:35;9.55;;;4.10;;
78402;SDS011;67687;43.508;1.504;2023-09-18T08:48:04;10.05;;;3.72;;
78402;SDS011;67687;43.508;1.504;2023-09-18T08:50:34;9.38;;;3.35;;
78402;SDS011;67687;43.508;1.504;2023-09-18T08:53:00;11.50;;;3.97;;
78402;SDS011;67687;43.508;1.504;2023-09-18T08:55:28;8.88;;;3.63;;
78402;SDS011;67687;43.508;1.504;2023-09-18T08:57:55;8.13;;;3.58;;
78402;SDS011;67687;43.508;1.504;2023-09-18T09:00:24;8.57;;;3.15;;
78402;SDS011;67687;43.508;1.504;2023-09-18T09:02:51;9.15;;;3.10;;
78402;SDS011;67687;43.508;1.504;2023-09-18T09:05:19;8.13;;;3.20;;
78402;SDS011;67687;43.508;1.504;2023-09-18T09:07:47;8.27;;;3.13;;
78402;SDS011;67687;43.508;1.504;2023-09-18T09:10:15;7.68;;;2.70;;
78402;SDS011;67687;43.508;1.504;2023-09-18T09:12:48;9.85;;;3.00;;
78402;SDS011;67687;43.508;1.504;2023-09-18T09:15:19;6.18;;;3.10;;
78402;SDS011;67687;43.508;1.504;2023-09-18T09:17:47;7.47;;;2.67;;
78402;SDS011;67687;43.508;1.504;2023-09-18T09:20:14;9.57;;;2.83;;
78402;SDS011;67687;43.508;1.504;2023-09-18T09:22:43;8.10;;;2.92;;
78402;SDS011;67687;43.508;1.504;2023-09-18T09:25:25;6.78;;;2.65;;
78402;SDS011;67687;43.508;1.504;2023-09-18T09:27:52;6.32;;;2.53;;
78402;SDS011;67687;43.508;1.504;2023-09-18T09:30:20;7.10;;;2.53;;
78402;SDS011;67687;43.508;1.504;2023-09-18T09:32:48;7.40;;;2.22;;
78402;SDS011;67687;43.508;1.504;2023-09-18T09:35:20;5.75;;;2.63;;
78402;SDS011;67687;43.508;1.504;2023-09-18T09:37:48;5.22;;;2.25;;
78402;SDS011;67687;43.508;1.504;2023-09-18T09:40:15;5.90;;;2.30;;
78402;SDS011;67687;43.508;1.504;2023-09-18T09:42:44;6.87;;;2.63;;
78402;SDS011;67687;43.508;1.504;2023-09-18T09:45:12;5.53;;;2.40;;
78402;SDS011;67687;43.508;1.504;2023-09-18T09:47:40;7.57;;;2.80;;
78402;SDS011;67687;43.508;1.504;2023-09-18T09:50:08;10.55;;;2.55;;
78402;SDS011;67687;43.508;1.504;2023-09-18T09:52:36;7.05;;;2.75;;
78402;SDS011;67687;43.508;1.504;2023-09-18T09:55:17;6.70;;;2.80;;
78402;SDS011;67687;43.508;1.504;2023-09-18T09:57:50;5.88;;;2.50;;
78402;SDS011;67687;43.508;1.504;2023-09-18T10:00:19;6.40;;;2.42;;
78402;SDS011;67687;43.508;1.504;2023-09-18T10:02:59;6.80;;;2.55;;
78402;SDS011;67687;43.508;1.504;2023-09-18T10:05:28;5.38;;;2.30;;
78402;SDS011;67687;43.508;1.504;2023-09-18T10:07:58;7.07;;;2.57;;
78402;SDS011;67687;43.508;1.504;2023-09-18T10:10:27;7.32;;;2.38;;
78402;SDS011;67687;43.508;1.504;2023-09-18T10:12:58;6.80;;;2.20;;
78402;SDS011;67687;43.508;1.504;2023-09-18T10:15:27;6.18;;;2.45;;
78402;SDS011;67687;43.508;1.504;2023-09-18T10:17:56;5.78;;;2.50;;
78402;SDS011;67687;43.508;1.504;2023-09-18T10:20:24;6.87;;;2.80;;
78402;SDS011;67687;43.508;1.504;2023-09-18T10:22:53;5.53;;;2.50;;
78402;SDS011;67687;43.508;1.504;2023-09-18T10:25:21;6.63;;;2.50;;
78402;SDS011;67687;43.508;1.504;2023-09-18T10:27:51;4.75;;;2.40;;
78402;SDS011;67687;43.508;1.504;2023-09-18T10:30:20;6.05;;;2.47;;
78402;SDS011;67687;43.508;1.504;2023-09-18T10:32:48;5.67;;;2.47;;
78402;SDS011;67687;43.508;1.504;2023-09-18T10:35:16;6.10;;;2.40;;
78402;SDS011;67687;43.508;1.504;2023-09-18T10:37:45;6.45;;;2.40;;
78402;SDS011;67687;43.508;1.504;2023-09-18T10:40:12;6.05;;;2.75;;
78402;SDS011;67687;43.508;1.504;2023-09-18T10:42:41;4.43;;;2.67;;
78402;SDS011;67687;43.508;1.504;2023-09-18T10:45:08;5.23;;;2.60;;
78402;SDS011;67687;43.508;1.504;2023-09-18T10:47:39;5.55;;;2.60;;
78402;SDS011;67687;43.508;1.504;2023-09-18T10:50:07;6.97;;;2.58;;
78402;SDS011;67687;43.508;1.504;2023-09-18T10:52:34;7.18;;;2.90;;
78402;SDS011;67687;43.508;1.504;2023-09-18T10:55:02;8.20;;;2.88;;
78402;SDS011;67687;43.508;1.504;2023-09-18T10:57:32;6.27;;;3.27;;
78402;SDS011;67687;43.508;1.504;2023-09-18T10:59:59;7.32;;;3.10;;
78402;SDS011;67687;43.508;1.504;2023-09-18T11:02:27;7.30;;;3.20;;
78402;SDS011;67687;43.508;1.504;2023-09-18T11:04:55;6.40;;;2.85;;
78402;SDS011;67687;43.508;1.504;2023-09-18T11:07:22;5.65;;;2.55;;
78402;SDS011;67687;43.508;1.504;2023-09-18T11:09:49;6.10;;;2.67;;
78402;SDS011;67687;43.508;1.504;2023-09-18T11:12:17;5.35;;;2.60;;
78402;SDS011;67687;43.508;1.504;2023-09-18T11:14:45;6.25;;;2.83;;
78402;SDS011;67687;43.508;1.504;2023-09-18T11:17:30;5.85;;;2.80;;
78402;SDS011;67687;43.508;1.504;2023-09-18T11:20:03;6.60;;;3.28;;
78402;SDS011;67687;43.508;1.504;2023-09-18T11:22:37;7.13;;;3.10;;
78402;SDS011;67687;43.508;1.504;2023-09-18T11:28:06;6.95;;;3.30;;
78402;SDS011;67687;43.508;1.504;2023-09-18T11:30:34;5.72;;;2.80;;
78402;SDS011;67687;43.508;1.504;2023-09-18T11:33:02;5.40;;;2.85;;
78402;SDS011;67687;43.508;1.504;2023-09-18T11:35:31;5.17;;;2.50;;
78402;SDS011;67687;43.508;1.504;2023-09-18T11:38:06;4.80;;;2.60;;
78402;SDS011;67687;43.508;1.504;2023-09-18T11:40:34;6.22;;;2.88;;
78402;SDS011;67687;43.508;1.504;2023-09-18T11:43:19;7.25;;;2.55;;
78402;SDS011;67687;43.508;1.504;2023-09-18T11:45:50;5.65;;;2.40;;
78402;SDS011;67687;43.508;1.504;2023-09-18T11:48:18;5.20;;;2.57;;
78402;SDS011;67687;43.508;1.504;2023-09-18T11:50:47;5.88;;;2.28;;
78402;SDS011;67687;43.508;1.504;2023-09-18T11:53:16;6.85;;;2.63;;
78402;SDS011;67687;43.508;1.504;2023-09-18T11:55:44;5.07;;;2.25;;
78402;SDS011;67687;43.508;1.504;2023-09-18T11:58:11;4.43;;;2.38;;
78402;SDS011;67687;43.508;1.504;2023-09-18T12:00:39;4.90;;;2.40;;
78402;SDS011;67687;43.508;1.504;2023-09-18T12:03:18;4.72;;;2.60;;
78402;SDS011;67687;43.508;1.504;2023-09-18T12:05:53;5.72;;;2.50;;
78402;SDS011;67687;43.508;1.504;2023-09-18T12:08:21;5.22;;;2.30;;
78402;SDS011;67687;43.508;1.504;2023-09-18T12:10:51;4.78;;;2.33;;
78402;SDS011;67687;43.508;1.504;2023-09-18T12:13:18;4.70;;;2.20;;
78402;SDS011;67687;43.508;1.504;2023-09-18T12:15:45;5.45;;;2.70;;
78402;SDS011;67687;43.508;1.504;2023-09-18T12:18:14;5.78;;;2.60;;
78402;SDS011;67687;43.508;1.504;2023-09-18T12:20:47;6.90;;;2.53;;
78402;SDS011;67687;43.508;1.504;2023-09-18T12:23:16;6.85;;;2.58;;
78402;SDS011;67687;43.508;1.504;2023-09-18T12:25:44;6.13;;;2.23;;
78402;SDS011;67687;43.508;1.504;2023-09-18T12:28:12;6.40;;;2.30;;
78402;SDS011;67687;43.508;1.504;2023-09-18T12:30:40;6.80;;;2.78;;
78402;SDS011;67687;43.508;1.504;2023-09-18T12:33:07;4.70;;;2.35;;
78402;SDS011;67687;43.508;1.504;2023-09-18T12:35:34;5.00;;;2.05;;
78402;SDS011;67687;43.508;1.504;2023-09-18T12:38:01;4.03;;;2.50;;
78402;SDS011;67687;43.508;1.504;2023-09-18T12:40:31;5.40;;;2.47;;
78402;SDS011;67687;43.508;1.504;2023-09-18T12:42:59;4.90;;;2.45;;
78402;SDS011;67687;43.508;1.504;2023-09-18T12:45:26;4.63;;;2.80;;
78402;SDS011;67687;43.508;1.504;2023-09-18T12:47:55;5.50;;;2.53;;
78402;SDS011;67687;43.508;1.504;2023-09-18T12:50:22;5.43;;;2.37;;
78402;SDS011;67687;43.508;1.504;2023-09-18T12:52:49;5.35;;;2.60;;
78402;SDS011;67687;43.508;1.504;2023-09-18T12:55:22;5.32;;;2.42;;
78402;SDS011;67687;43.508;1.504;2023-09-18T12:57:51;4.70;;;2.45;;
78402;SDS011;67687;43.508;1.504;2023-09-18T13:00:19;6.97;;;2.72;;
78402;SDS011;67687;43.508;1.504;2023-09-18T13:02:47;6.53;;;2.77;;
78402;SDS011;67687;43.508;1.504;2023-09-18T13:05:19;5.05;;;2.50;;
78402;SDS011;67687;43.508;1.504;2023-09-18T13:07:46;7.25;;;2.70;;
78402;SDS011;67687;43.508;1.504;2023-09-18T13:10:13;6.03;;;2.38;;
78402;SDS011;67687;43.508;1.504;2023-09-18T13:12:41;7.65;;;3.05;;
78402;SDS011;67687;43.508;1.504;2023-09-18T13:15:10;6.70;;;2.90;;
78402;SDS011;67687;43.508;1.504;2023-09-18T13:17:41;6.28;;;3.05;;
78402;SDS011;67687;43.508;1.504;2023-09-18T13:20:13;6.00;;;2.97;;
78402;SDS011;67687;43.508;1.504;2023-09-18T13:22:47;6.80;;;2.90;;
78402;SDS011;67687;43.508;1.504;2023-09-18T13:25:19;7.38;;;3.10;;
78402;SDS011;67687;43.508;1.504;2023-09-18T13:27:46;7.37;;;3.50;;
78402;SDS011;67687;43.508;1.504;2023-09-18T13:30:14;7.97;;;2.85;;
78402;SDS011;67687;43.508;1.504;2023-09-18T13:32:42;6.38;;;2.65;;
78402;SDS011;67687;43.508;1.504;2023-09-18T13:35:09;7.03;;;3.10;;
78402;SDS011;67687;43.508;1.504;2023-09-18T13:37:39;7.53;;;3.10;;
78402;SDS011;67687;43.508;1.504;2023-09-18T13:40:06;9.50;;;3.07;;
78402;SDS011;67687;43.508;1.504;2023-09-18T13:42:35;7.55;;;3.10;;
78402;SDS011;67687;43.508;1.504;2023-09-18T13:45:02;7.18;;;2.92;;
78402;SDS011;67687;43.508;1.504;2023-09-18T13:47:32;5.30;;;2.72;;
78402;SDS011;67687;43.508;1.504;2023-09-18T13:49:59;6.32;;;2.63;;
78402;SDS011;67687;43.508;1.504;2023-09-18T13:52:26;6.37;;;2.40;;
78402;SDS011;67687;43.508;1.504;2023-09-18T13:54:53;4.60;;;1.98;;
78402;SDS011;67687;43.508;1.504;2023-09-18T13:57:20;5.85;;;2.20;;
78402;SDS011;67687;43.508;1.504;2023-09-18T13:59:48;4.90;;;1.80;;
78402;SDS011;67687;43.508;1.504;2023-09-18T14:02:15;5.60;;;2.10;;
78402;SDS011;67687;43.508;1.504;2023-09-18T14:04:43;5.03;;;2.07;;
78402;SDS011;67687;43.508;1.504;2023-09-18T14:07:10;5.95;;;2.10;;
78402;SDS011;67687;43.508;1.504;2023-09-18T14:09:38;3.88;;;1.90;;
78402;SDS011;67687;43.508;1.504;2023-09-18T14:12:05;4.00;;;2.05;;
78402;SDS011;67687;43.508;1.504;2023-09-18T14:14:33;4.45;;;1.98;;
78402;SDS011;67687;43.508;1.504;2023-09-18T14:17:01;4.20;;;1.70;;
78402;SDS011;67687;43.508;1.504;2023-09-18T14:19:28;4.78;;;1.92;;
78402;SDS011;67687;43.508;1.504;2023-09-18T14:21:56;5.53;;;1.85;;
78402;SDS011;67687;43.508;1.504;2023-09-18T14:24:28;5.25;;;2.08;;
78402;SDS011;67687;43.508;1.504;2023-09-18T14:26:55;6.45;;;1.92;;
78402;SDS011;67687;43.508;1.504;2023-09-18T14:29:22;4.67;;;1.80;;
78402;SDS011;67687;43.508;1.504;2023-09-18T14:31:49;5.35;;;2.13;;
78402;SDS011;67687;43.508;1.504;2023-09-18T14:34:16;4.85;;;2.10;;
78402;SDS011;67687;43.508;1.504;2023-09-18T14:36:42;4.90;;;1.90;;
78402;SDS011;67687;43.508;1.504;2023-09-18T14:39:11;4.63;;;1.95;;
78402;SDS011;67687;43.508;1.504;2023-09-18T14:41:38;5.30;;;1.97;;
78402;SDS011;67687;43.508;1.504;2023-09-18T14:44:06;5.60;;;1.88;;
78402;SDS011;67687;43.508;1.504;2023-09-18T14:46:33;5.10;;;1.85;;
78402;SDS011;67687;43.508;1.504;2023-09-18T14:49:02;3.90;;;1.85;;
78402;SDS011;67687;43.508;1.504;2023-09-18T14:51:29;4.00;;;1.70;;